sensor_id;sensor_type;location;lat;lon;timestamp;P1;durP1;ratioP1;P2;durP2;ratioP2
73296;SDS011;61524;50.938;11.396;2022-08-11T00:00:39;6.05;;;4.07;;
73296;SDS011;61524;50.938;11.396;2022-08-11T00:03:09;7.35;;;3.90;;
73296;SDS011;61524;50.938;11.396;2022-08-11T00:05:46;10.65;;;4.22;;
73296;SDS011;61524;50.938;11.396;2022-08-11T00:08:31;8.30;;;4.70;;
73296;SDS011;61524;50.938;11.396;2022-08-11T00:10:59;6.78;;;4.20;;
73296;SDS011;61524;50.938;11.396;2022-08-11T00:13:34;7.35;;;4.10;;
73296;SDS011;61524;50.938;11.396;2022-08-11T00:18:45;7.22;;;4.72;;
73296;SDS011;61524;50.938;11.396;2022-08-11T00:21:13;5.85;;;4.28;;
73296;SDS011;61524;50.938;11.396;2022-08-11T00:23:41;7.55;;;4.18;;
73296;SDS011;61524;50.938;11.396;2022-08-11T00:26:09;6.85;;;4.07;;
73296;SDS011;61524;50.938;11.396;2022-08-11T00:28:36;6.38;;;4.30;;
73296;SDS011;61524;50.938;11.396;2022-08-11T00:31:03;6.85;;;4.10;;
73296;SDS011;61524;50.938;11.396;2022-08-11T00:36:03;6.53;;;4.07;;
73296;SDS011;61524;50.938;11.396;2022-08-11T00:38:32;7.30;;;4.45;;
73296;SDS011;61524;50.938;11.396;2022-08-11T00:41:08;6.53;;;3.72;;
73296;SDS011;61524;50.938;11.396;2022-08-11T00:55:06;7.40;;;4.80;;
73296;SDS011;61524;50.938;11.396;2022-08-11T01:00:54;7.43;;;4.75;;
73296;SDS011;61524;50.938;11.396;2022-08-11T01:03:44;6.38;;;4.43;;
73296;SDS011;61524;50.938;11.396;2022-08-11T01:11:44;6.20;;;4.30;;
73296;SDS011;61524;50.938;11.396;2022-08-11T01:28:25;5.60;;;4.45;;
73296;SDS011;61524;50.938;11.396;2022-08-11T01:47:34;6.32;;;4.47;;
73296;SDS011;61524;50.938;11.396;2022-08-11T01:50:20;9.07;;;4.63;;
73296;SDS011;61524;50.938;11.396;2022-08-11T02:01:52;7.35;;;4.63;;
73296;SDS011;61524;50.938;11.396;2022-08-11T02:10:48;6.80;;;4.53;;
73296;SDS011;61524;50.938;11.396;2022-08-11T02:13:31;6.88;;;4.60;;
73296;SDS011;61524;50.938;11.396;2022-08-11T02:16:03;6.72;;;4.85;;
73296;SDS011;61524;50.938;11.396;2022-08-11T02:18:36;6.50;;;4.85;;
73296;SDS011;61524;50.938;11.396;2022-08-11T02:21:30;8.48;;;4.65;;
73296;SDS011;61524;50.938;11.396;2022-08-11T02:24:33;6.95;;;4.80;;
73296;SDS011;61524;50.938;11.396;2022-08-11T02:27:06;6.93;;;4.88;;
73296;SDS011;61524;50.938;11.396;2022-08-11T02:29:57;8.32;;;4.75;;
73296;SDS011;61524;50.938;11.396;2022-08-11T02:32:33;6.78;;;4.57;;
73296;SDS011;61524;50.938;11.396;2022-08-11T02:35:24;5.75;;;4.40;;
73296;SDS011;61524;50.938;11.396;2022-08-11T02:41:51;7.50;;;4.65;;
73296;SDS011;61524;50.938;11.396;2022-08-11T02:50:02;9.15;;;5.00;;
73296;SDS011;61524;50.938;11.396;2022-08-11T02:57:46;7.00;;;5.07;;
73296;SDS011;61524;50.938;11.396;2022-08-11T03:00:17;8.50;;;5.65;;
73296;SDS011;61524;50.938;11.396;2022-08-11T03:14:49;8.77;;;4.53;;
73296;SDS011;61524;50.938;11.396;2022-08-11T03:17:46;7.25;;;5.25;;
73296;SDS011;61524;50.938;11.396;2022-08-11T03:20:27;8.98;;;4.70;;
73296;SDS011;61524;50.938;11.396;2022-08-11T03:23:26;7.65;;;4.60;;
73296;SDS011;61524;50.938;11.396;2022-08-11T03:28:57;9.48;;;5.43;;
73296;SDS011;61524;50.938;11.396;2022-08-11T03:31:30;6.55;;;4.82;;
73296;SDS011;61524;50.938;11.396;2022-08-11T03:34:04;7.53;;;5.45;;
73296;SDS011;61524;50.938;11.396;2022-08-11T03:39:21;5.88;;;4.20;;
73296;SDS011;61524;50.938;11.396;2022-08-11T03:42:30;9.48;;;5.05;;
73296;SDS011;61524;50.938;11.396;2022-08-11T03:47:59;6.85;;;4.85;;
73296;SDS011;61524;50.938;11.396;2022-08-11T03:51:02;8.35;;;4.47;;
73296;SDS011;61524;50.938;11.396;2022-08-11T03:53:43;8.40;;;5.57;;
73296;SDS011;61524;50.938;11.396;2022-08-11T04:05:26;6.32;;;4.25;;
73296;SDS011;61524;50.938;11.396;2022-08-11T04:14:10;6.20;;;4.22;;
73296;SDS011;61524;50.938;11.396;2022-08-11T04:20:15;10.40;;;4.97;;
73296;SDS011;61524;50.938;11.396;2022-08-11T04:40:24;11.07;;;5.43;;
73296;SDS011;61524;50.938;11.396;2022-08-11T04:48:51;12.73;;;5.40;;
73296;SDS011;61524;50.938;11.396;2022-08-11T05:13:09;6.28;;;3.92;;
73296;SDS011;61524;50.938;11.396;2022-08-11T05:16:07;6.35;;;4.75;;
73296;SDS011;61524;50.938;11.396;2022-08-11T05:18:54;6.63;;;4.43;;
73296;SDS011;61524;50.938;11.396;2022-08-11T05:21:40;6.85;;;4.38;;
73296;SDS011;61524;50.938;11.396;2022-08-11T05:24:29;6.43;;;4.85;;
73296;SDS011;61524;50.938;11.396;2022-08-11T05:27:32;8.05;;;4.72;;
73296;SDS011;61524;50.938;11.396;2022-08-11T05:30:24;10.07;;;4.47;;
73296;SDS011;61524;50.938;11.396;2022-08-11T05:33:18;6.60;;;4.18;;
73296;SDS011;61524;50.938;11.396;2022-08-11T05:41:46;6.65;;;3.95;;
73296;SDS011;61524;50.938;11.396;2022-08-11T05:44:33;5.82;;;4.55;;
73296;SDS011;61524;50.938;11.396;2022-08-11T05:47:23;8.82;;;5.15;;
73296;SDS011;61524;50.938;11.396;2022-08-11T05:50:11;7.47;;;4.22;;
73296;SDS011;61524;50.938;11.396;2022-08-11T05:52:58;6.47;;;4.25;;
73296;SDS011;61524;50.938;11.396;2022-08-11T05:55:43;8.45;;;4.07;;
73296;SDS011;61524;50.938;11.396;2022-08-11T05:58:34;6.63;;;4.40;;
73296;SDS011;61524;50.938;11.396;2022-08-11T06:01:02;8.40;;;4.75;;
73296;SDS011;61524;50.938;11.396;2022-08-11T06:03:29;9.07;;;4.25;;
73296;SDS011;61524;50.938;11.396;2022-08-11T06:06:17;5.45;;;4.00;;
73296;SDS011;61524;50.938;11.396;2022-08-11T06:08:44;7.07;;;4.50;;
73296;SDS011;61524;50.938;11.396;2022-08-11T06:11:10;6.22;;;4.82;;
73296;SDS011;61524;50.938;11.396;2022-08-11T06:13:42;5.32;;;3.97;;
73296;SDS011;61524;50.938;11.396;2022-08-11T06:16:09;5.75;;;4.32;;
73296;SDS011;61524;50.938;11.396;2022-08-11T06:18:38;7.03;;;4.55;;
73296;SDS011;61524;50.938;11.396;2022-08-11T06:21:07;6.75;;;4.07;;
73296;SDS011;61524;50.938;11.396;2022-08-11T06:23:35;6.90;;;4.15;;
73296;SDS011;61524;50.938;11.396;2022-08-11T06:26:06;8.38;;;4.30;;
73296;SDS011;61524;50.938;11.396;2022-08-11T06:28:35;9.38;;;4.25;;
73296;SDS011;61524;50.938;11.396;2022-08-11T06:31:09;6.35;;;4.38;;
73296;SDS011;61524;50.938;11.396;2022-08-11T06:36:39;5.45;;;3.78;;
73296;SDS011;61524;50.938;11.396;2022-08-11T06:41:53;8.02;;;4.13;;
73296;SDS011;61524;50.938;11.396;2022-08-11T06:44:31;7.65;;;4.40;;
73296;SDS011;61524;50.938;11.396;2022-08-11T06:47:07;5.90;;;3.83;;
73296;SDS011;61524;50.938;11.396;2022-08-11T06:49:36;5.68;;;3.60;;
73296;SDS011;61524;50.938;11.396;2022-08-11T06:52:44;7.00;;;3.45;;
73296;SDS011;61524;50.938;11.396;2022-08-11T06:58:05;6.55;;;3.55;;
73296;SDS011;61524;50.938;11.396;2022-08-11T07:00:54;10.50;;;3.22;;
73296;SDS011;61524;50.938;11.396;2022-08-11T07:03:22;7.03;;;3.55;;
73296;SDS011;61524;50.938;11.396;2022-08-11T07:06:09;6.65;;;3.60;;
73296;SDS011;61524;50.938;11.396;2022-08-11T07:09:30;5.32;;;3.72;;
73296;SDS011;61524;50.938;11.396;2022-08-11T07:15:05;4.70;;;3.10;;
73296;SDS011;61524;50.938;11.396;2022-08-11T07:17:53;6.43;;;3.55;;
73296;SDS011;61524;50.938;11.396;2022-08-11T07:20:41;9.60;;;3.53;;
73296;SDS011;61524;50.938;11.396;2022-08-11T07:23:27;7.43;;;3.38;;
73296;SDS011;61524;50.938;11.396;2022-08-11T07:26:16;6.03;;;3.00;;
73296;SDS011;61524;50.938;11.396;2022-08-11T07:29:04;5.78;;;3.20;;
73296;SDS011;61524;50.938;11.396;2022-08-11T07:31:34;7.20;;;3.30;;
73296;SDS011;61524;50.938;11.396;2022-08-11T07:34:11;5.50;;;3.17;;
73296;SDS011;61524;50.938;11.396;2022-08-11T07:36:57;4.72;;;2.80;;
73296;SDS011;61524;50.938;11.396;2022-08-11T07:39:25;7.88;;;3.33;;
73296;SDS011;61524;50.938;11.396;2022-08-11T07:41:53;6.45;;;3.10;;
73296;SDS011;61524;50.938;11.396;2022-08-11T07:44:21;4.95;;;2.63;;
73296;SDS011;61524;50.938;11.396;2022-08-11T07:46:53;5.30;;;2.90;;
73296;SDS011;61524;50.938;11.396;2022-08-11T07:49:38;4.97;;;3.47;;
73296;SDS011;61524;50.938;11.396;2022-08-11T07:52:24;4.97;;;2.70;;
73296;SDS011;61524;50.938;11.396;2022-08-11T07:55:02;7.28;;;3.70;;
73296;SDS011;61524;50.938;11.396;2022-08-11T07:57:30;6.35;;;2.97;;
73296;SDS011;61524;50.938;11.396;2022-08-11T08:00:15;9.27;;;3.15;;
73296;SDS011;61524;50.938;11.396;2022-08-11T08:03:01;7.15;;;3.08;;
73296;SDS011;61524;50.938;11.396;2022-08-11T08:05:47;7.13;;;2.88;;
73296;SDS011;61524;50.938;11.396;2022-08-11T08:08:32;8.05;;;3.00;;
73296;SDS011;61524;50.938;11.396;2022-08-11T08:11:18;7.20;;;3.30;;
73296;SDS011;61524;50.938;11.396;2022-08-11T08:14:04;5.68;;;3.05;;
73296;SDS011;61524;50.938;11.396;2022-08-11T08:16:51;10.77;;;3.00;;
73296;SDS011;61524;50.938;11.396;2022-08-11T08:19:36;9.60;;;3.17;;
73296;SDS011;61524;50.938;11.396;2022-08-11T08:22:02;7.38;;;2.80;;
73296;SDS011;61524;50.938;11.396;2022-08-11T08:24:28;7.78;;;3.10;;
73296;SDS011;61524;50.938;11.396;2022-08-11T08:29:24;8.07;;;2.63;;
73296;SDS011;61524;50.938;11.396;2022-08-11T08:32:10;6.75;;;2.60;;
73296;SDS011;61524;50.938;11.396;2022-08-11T08:34:36;6.47;;;2.60;;
73296;SDS011;61524;50.938;11.396;2022-08-11T08:37:06;5.00;;;2.40;;
73296;SDS011;61524;50.938;11.396;2022-08-11T08:39:32;5.85;;;2.60;;
73296;SDS011;61524;50.938;11.396;2022-08-11T08:42:02;7.47;;;2.55;;
73296;SDS011;61524;50.938;11.396;2022-08-11T08:47:04;4.47;;;2.38;;
73296;SDS011;61524;50.938;11.396;2022-08-11T08:49:33;5.00;;;2.55;;
73296;SDS011;61524;50.938;11.396;2022-08-11T08:52:02;3.85;;;2.20;;
73296;SDS011;61524;50.938;11.396;2022-08-11T08:54:37;5.93;;;2.30;;
73296;SDS011;61524;50.938;11.396;2022-08-11T08:57:06;4.22;;;1.90;;
73296;SDS011;61524;50.938;11.396;2022-08-11T08:59:35;3.97;;;2.08;;
73296;SDS011;61524;50.938;11.396;2022-08-11T09:02:04;5.82;;;2.00;;
73296;SDS011;61524;50.938;11.396;2022-08-11T09:04:31;4.53;;;2.20;;
73296;SDS011;61524;50.938;11.396;2022-08-11T09:07:15;5.30;;;2.40;;
73296;SDS011;61524;50.938;11.396;2022-08-11T09:09:43;7.07;;;2.30;;
73296;SDS011;61524;50.938;11.396;2022-08-11T09:12:11;5.72;;;2.25;;
73296;SDS011;61524;50.938;11.396;2022-08-11T09:14:38;3.35;;;2.03;;
73296;SDS011;61524;50.938;11.396;2022-08-11T09:17:24;4.25;;;1.80;;
73296;SDS011;61524;50.938;11.396;2022-08-11T09:19:53;3.30;;;1.90;;
73296;SDS011;61524;50.938;11.396;2022-08-11T09:22:27;4.50;;;2.05;;
73296;SDS011;61524;50.938;11.396;2022-08-11T09:25:15;4.82;;;2.00;;
73296;SDS011;61524;50.938;11.396;2022-08-11T09:28:00;3.20;;;1.88;;
73296;SDS011;61524;50.938;11.396;2022-08-11T09:30:29;3.65;;;1.90;;
73296;SDS011;61524;50.938;11.396;2022-08-11T09:32:56;4.97;;;2.47;;
73296;SDS011;61524;50.938;11.396;2022-08-11T09:35:27;3.72;;;1.88;;
73296;SDS011;61524;50.938;11.396;2022-08-11T09:37:54;5.85;;;2.10;;
73296;SDS011;61524;50.938;11.396;2022-08-11T09:40:41;3.97;;;2.00;;
73296;SDS011;61524;50.938;11.396;2022-08-11T09:43:09;3.58;;;2.00;;
73296;SDS011;61524;50.938;11.396;2022-08-11T09:45:54;4.40;;;2.15;;
73296;SDS011;61524;50.938;11.396;2022-08-11T09:48:25;4.78;;;2.30;;
73296;SDS011;61524;50.938;11.396;2022-08-11T09:50:53;4.47;;;2.42;;
73296;SDS011;61524;50.938;11.396;2022-08-11T09:53:22;4.70;;;2.50;;
73296;SDS011;61524;50.938;11.396;2022-08-11T09:55:49;5.15;;;2.47;;
73296;SDS011;61524;50.938;11.396;2022-08-11T09:58:16;4.20;;;2.15;;
73296;SDS011;61524;50.938;11.396;2022-08-11T10:00:43;4.75;;;2.05;;
73296;SDS011;61524;50.938;11.396;2022-08-11T10:03:14;9.07;;;2.35;;
73296;SDS011;61524;50.938;11.396;2022-08-11T10:05:50;4.63;;;2.35;;
73296;SDS011;61524;50.938;11.396;2022-08-11T10:08:38;5.07;;;2.30;;
73296;SDS011;61524;50.938;11.396;2022-08-11T10:11:08;3.53;;;2.22;;
73296;SDS011;61524;50.938;11.396;2022-08-11T10:13:36;5.15;;;2.50;;
73296;SDS011;61524;50.938;11.396;2022-08-11T10:16:25;4.30;;;2.20;;
73296;SDS011;61524;50.938;11.396;2022-08-11T10:18:53;7.60;;;2.47;;
73296;SDS011;61524;50.938;11.396;2022-08-11T10:21:24;6.28;;;2.30;;
73296;SDS011;61524;50.938;11.396;2022-08-11T10:23:52;6.75;;;2.40;;
73296;SDS011;61524;50.938;11.396;2022-08-11T10:26:37;4.80;;;2.45;;
73296;SDS011;61524;50.938;11.396;2022-08-11T10:29:25;6.00;;;2.13;;
73296;SDS011;61524;50.938;11.396;2022-08-11T10:32:13;3.58;;;1.98;;
73296;SDS011;61524;50.938;11.396;2022-08-11T10:35:27;4.28;;;2.40;;
73296;SDS011;61524;50.938;11.396;2022-08-11T10:37:54;6.53;;;2.40;;
73296;SDS011;61524;50.938;11.396;2022-08-11T10:40:21;6.55;;;2.20;;
73296;SDS011;61524;50.938;11.396;2022-08-11T10:42:55;4.82;;;2.50;;
73296;SDS011;61524;50.938;11.396;2022-08-11T10:45:40;7.38;;;2.67;;
73296;SDS011;61524;50.938;11.396;2022-08-11T10:48:29;4.13;;;2.03;;
73296;SDS011;61524;50.938;11.396;2022-08-11T10:51:00;4.85;;;1.80;;
73296;SDS011;61524;50.938;11.396;2022-08-11T10:53:42;4.57;;;1.90;;
73296;SDS011;61524;50.938;11.396;2022-08-11T10:56:28;5.03;;;2.08;;
73296;SDS011;61524;50.938;11.396;2022-08-11T10:59:15;3.60;;;2.10;;
73296;SDS011;61524;50.938;11.396;2022-08-11T11:01:41;4.63;;;2.10;;
73296;SDS011;61524;50.938;11.396;2022-08-11T11:04:20;4.43;;;1.90;;
73296;SDS011;61524;50.938;11.396;2022-08-11T11:06:52;3.70;;;2.15;;
73296;SDS011;61524;50.938;11.396;2022-08-11T11:09:19;5.55;;;1.95;;
73296;SDS011;61524;50.938;11.396;2022-08-11T11:11:50;5.68;;;2.00;;
73296;SDS011;61524;50.938;11.396;2022-08-11T11:14:37;5.00;;;1.73;;
73296;SDS011;61524;50.938;11.396;2022-08-11T11:17:29;4.63;;;1.90;;
73296;SDS011;61524;50.938;11.396;2022-08-11T11:20:19;4.47;;;2.00;;
73296;SDS011;61524;50.938;11.396;2022-08-11T11:22:52;4.50;;;2.08;;
73296;SDS011;61524;50.938;11.396;2022-08-11T11:30:46;3.85;;;2.10;;
73296;SDS011;61524;50.938;11.396;2022-08-11T11:33:18;4.55;;;2.22;;
73296;SDS011;61524;50.938;11.396;2022-08-11T11:39:03;4.35;;;2.13;;
73296;SDS011;61524;50.938;11.396;2022-08-11T11:41:31;5.00;;;2.05;;
73296;SDS011;61524;50.938;11.396;2022-08-11T11:43:56;4.63;;;2.10;;
73296;SDS011;61524;50.938;11.396;2022-08-11T11:46:26;4.05;;;1.90;;
73296;SDS011;61524;50.938;11.396;2022-08-11T11:48:54;9.38;;;2.00;;
73296;SDS011;61524;50.938;11.396;2022-08-11T11:51:21;5.95;;;1.95;;
73296;SDS011;61524;50.938;11.396;2022-08-11T11:53:47;4.32;;;1.92;;
73296;SDS011;61524;50.938;11.396;2022-08-11T11:56:14;3.38;;;2.13;;
73296;SDS011;61524;50.938;11.396;2022-08-11T11:58:40;4.25;;;2.20;;
73296;SDS011;61524;50.938;11.396;2022-08-11T12:01:26;6.90;;;2.03;;
73296;SDS011;61524;50.938;11.396;2022-08-11T12:03:52;4.93;;;2.00;;
73296;SDS011;61524;50.938;11.396;2022-08-11T12:06:23;5.57;;;1.88;;
73296;SDS011;61524;50.938;11.396;2022-08-11T12:08:52;5.93;;;2.10;;
73296;SDS011;61524;50.938;11.396;2022-08-11T12:11:22;3.90;;;1.90;;
73296;SDS011;61524;50.938;11.396;2022-08-11T12:14:08;3.88;;;1.80;;
73296;SDS011;61524;50.938;11.396;2022-08-11T12:16:35;5.68;;;2.10;;
73296;SDS011;61524;50.938;11.396;2022-08-11T12:19:05;11.70;;;2.30;;
73296;SDS011;61524;50.938;11.396;2022-08-11T12:21:35;4.03;;;2.05;;
73296;SDS011;61524;50.938;11.396;2022-08-11T12:24:03;5.70;;;2.05;;
73296;SDS011;61524;50.938;11.396;2022-08-11T12:26:48;6.95;;;1.90;;
73296;SDS011;61524;50.938;11.396;2022-08-11T12:29:14;4.68;;;1.55;;
73296;SDS011;61524;50.938;11.396;2022-08-11T12:31:43;7.80;;;2.17;;
73296;SDS011;61524;50.938;11.396;2022-08-11T12:34:11;4.50;;;2.03;;
73296;SDS011;61524;50.938;11.396;2022-08-11T12:36:42;8.63;;;2.38;;
73296;SDS011;61524;50.938;11.396;2022-08-11T12:39:12;4.70;;;2.33;;
73296;SDS011;61524;50.938;11.396;2022-08-11T12:41:44;4.80;;;2.00;;
73296;SDS011;61524;50.938;11.396;2022-08-11T12:44:29;8.02;;;2.15;;
73296;SDS011;61524;50.938;11.396;2022-08-11T12:47:17;17.17;;;3.88;;
73296;SDS011;61524;50.938;11.396;2022-08-11T12:49:48;4.63;;;2.33;;
73296;SDS011;61524;50.938;11.396;2022-08-11T12:52:36;28.67;;;4.47;;
73296;SDS011;61524;50.938;11.396;2022-08-11T12:57:58;4.05;;;1.90;;
73296;SDS011;61524;50.938;11.396;2022-08-11T13:00:41;3.38;;;1.92;;
73296;SDS011;61524;50.938;11.396;2022-08-11T13:03:29;5.07;;;1.77;;
73296;SDS011;61524;50.938;11.396;2022-08-11T13:06:15;6.40;;;2.03;;
73296;SDS011;61524;50.938;11.396;2022-08-11T13:08:43;3.42;;;1.73;;
73296;SDS011;61524;50.938;11.396;2022-08-11T13:11:11;4.28;;;1.77;;
73296;SDS011;61524;50.938;11.396;2022-08-11T13:13:58;6.03;;;2.28;;
73296;SDS011;61524;50.938;11.396;2022-08-11T13:16:26;6.22;;;1.90;;
73296;SDS011;61524;50.938;11.396;2022-08-11T13:18:57;3.75;;;1.77;;
73296;SDS011;61524;50.938;11.396;2022-08-11T13:21:25;4.43;;;2.15;;
73296;SDS011;61524;50.938;11.396;2022-08-11T13:23:52;6.30;;;2.30;;
73296;SDS011;61524;50.938;11.396;2022-08-11T13:26:21;4.60;;;1.95;;
73296;SDS011;61524;50.938;11.396;2022-08-11T13:28:48;6.07;;;1.90;;
73296;SDS011;61524;50.938;11.396;2022-08-11T13:31:15;4.28;;;1.90;;
73296;SDS011;61524;50.938;11.396;2022-08-11T13:33:42;4.85;;;2.00;;
73296;SDS011;61524;50.938;11.396;2022-08-11T13:36:10;5.28;;;1.70;;
73296;SDS011;61524;50.938;11.396;2022-08-11T13:38:37;4.55;;;1.77;;
73296;SDS011;61524;50.938;11.396;2022-08-11T13:41:06;6.25;;;1.92;;
73296;SDS011;61524;50.938;11.396;2022-08-11T13:43:52;5.22;;;2.00;;
73296;SDS011;61524;50.938;11.396;2022-08-11T13:46:20;4.85;;;2.13;;
73296;SDS011;61524;50.938;11.396;2022-08-11T13:48:48;4.63;;;2.00;;
73296;SDS011;61524;50.938;11.396;2022-08-11T13:51:15;5.82;;;2.20;;
73296;SDS011;61524;50.938;11.396;2022-08-11T13:54:00;4.70;;;2.42;;
73296;SDS011;61524;50.938;11.396;2022-08-11T13:56:28;6.35;;;2.45;;
73296;SDS011;61524;50.938;11.396;2022-08-11T13:58:55;5.22;;;2.15;;
73296;SDS011;61524;50.938;11.396;2022-08-11T14:01:31;5.43;;;2.22;;
73296;SDS011;61524;50.938;11.396;2022-08-11T14:04:02;6.60;;;2.20;;
73296;SDS011;61524;50.938;11.396;2022-08-11T14:06:33;5.10;;;2.30;;
73296;SDS011;61524;50.938;11.396;2022-08-11T14:09:01;4.00;;;1.95;;
73296;SDS011;61524;50.938;11.396;2022-08-11T14:11:28;6.13;;;1.88;;
73296;SDS011;61524;50.938;11.396;2022-08-11T14:14:15;3.95;;;1.85;;
73296;SDS011;61524;50.938;11.396;2022-08-11T14:16:46;5.72;;;1.90;;
73296;SDS011;61524;50.938;11.396;2022-08-11T14:19:15;4.35;;;2.10;;
73296;SDS011;61524;50.938;11.396;2022-08-11T14:21:45;4.97;;;2.05;;
73296;SDS011;61524;50.938;11.396;2022-08-11T14:24:30;4.93;;;2.22;;
73296;SDS011;61524;50.938;11.396;2022-08-11T14:26:56;7.60;;;2.00;;
73296;SDS011;61524;50.938;11.396;2022-08-11T14:29:24;4.22;;;1.90;;
73296;SDS011;61524;50.938;11.396;2022-08-11T14:31:55;6.60;;;2.13;;
73296;SDS011;61524;50.938;11.396;2022-08-11T14:34:23;6.85;;;2.00;;
73296;SDS011;61524;50.938;11.396;2022-08-11T14:36:54;5.30;;;2.08;;
73296;SDS011;61524;50.938;11.396;2022-08-11T14:39:26;6.78;;;2.53;;
73296;SDS011;61524;50.938;11.396;2022-08-11T14:42:00;4.00;;;1.90;;
73296;SDS011;61524;50.938;11.396;2022-08-11T14:45:32;9.68;;;1.90;;
73296;SDS011;61524;50.938;11.396;2022-08-11T14:47:54;5.45;;;2.10;;
73296;SDS011;61524;50.938;11.396;2022-08-11T14:50:26;8.63;;;1.95;;
73296;SDS011;61524;50.938;11.396;2022-08-11T14:53:06;5.80;;;2.05;;
73296;SDS011;61524;50.938;11.396;2022-08-11T14:55:34;6.45;;;1.92;;
73296;SDS011;61524;50.938;11.396;2022-08-11T14:58:22;3.47;;;1.95;;
73296;SDS011;61524;50.938;11.396;2022-08-11T15:00:56;4.90;;;2.22;;
73296;SDS011;61524;50.938;11.396;2022-08-11T15:03:24;6.65;;;2.10;;
73296;SDS011;61524;50.938;11.396;2022-08-11T15:05:51;7.68;;;2.05;;
73296;SDS011;61524;50.938;11.396;2022-08-11T15:08:20;3.60;;;1.98;;
73296;SDS011;61524;50.938;11.396;2022-08-11T15:11:07;7.95;;;2.10;;
73296;SDS011;61524;50.938;11.396;2022-08-11T15:13:55;3.67;;;1.90;;
73296;SDS011;61524;50.938;11.396;2022-08-11T15:16:22;8.20;;;2.60;;
73296;SDS011;61524;50.938;11.396;2022-08-11T15:19:07;5.88;;;2.72;;
73296;SDS011;61524;50.938;11.396;2022-08-11T15:21:34;6.03;;;1.70;;
73296;SDS011;61524;50.938;11.396;2022-08-11T15:24:18;4.13;;;2.00;;
73296;SDS011;61524;50.938;11.396;2022-08-11T15:26:43;6.25;;;1.98;;
73296;SDS011;61524;50.938;11.396;2022-08-11T15:29:30;5.72;;;1.80;;
73296;SDS011;61524;50.938;11.396;2022-08-11T15:32:18;3.40;;;1.77;;
73296;SDS011;61524;50.938;11.396;2022-08-11T15:34:55;4.22;;;2.15;;
73296;SDS011;61524;50.938;11.396;2022-08-11T15:37:42;3.67;;;2.00;;
73296;SDS011;61524;50.938;11.396;2022-08-11T15:40:21;4.43;;;1.90;;
73296;SDS011;61524;50.938;11.396;2022-08-11T15:43:14;4.15;;;1.83;;
73296;SDS011;61524;50.938;11.396;2022-08-11T15:46:19;3.83;;;2.00;;
73296;SDS011;61524;50.938;11.396;2022-08-11T15:51:32;4.05;;;1.85;;
73296;SDS011;61524;50.938;11.396;2022-08-11T15:54:02;6.32;;;2.10;;
73296;SDS011;61524;50.938;11.396;2022-08-11T15:56:36;4.10;;;1.90;;
73296;SDS011;61524;50.938;11.396;2022-08-11T15:59:05;7.10;;;1.85;;
73296;SDS011;61524;50.938;11.396;2022-08-11T16:01:52;4.50;;;2.05;;
73296;SDS011;61524;50.938;11.396;2022-08-11T16:04:38;5.88;;;1.95;;
73296;SDS011;61524;50.938;11.396;2022-08-11T16:07:07;4.03;;;1.83;;
73296;SDS011;61524;50.938;11.396;2022-08-11T16:09:43;5.45;;;2.13;;
73296;SDS011;61524;50.938;11.396;2022-08-11T16:12:24;6.65;;;1.90;;
73296;SDS011;61524;50.938;11.396;2022-08-11T16:14:57;4.68;;;1.92;;
73296;SDS011;61524;50.938;11.396;2022-08-11T16:17:45;4.40;;;1.85;;
73296;SDS011;61524;50.938;11.396;2022-08-11T16:20:14;6.18;;;2.38;;
73296;SDS011;61524;50.938;11.396;2022-08-11T16:22:43;5.32;;;2.25;;
73296;SDS011;61524;50.938;11.396;2022-08-11T16:25:12;3.58;;;1.90;;
73296;SDS011;61524;50.938;11.396;2022-08-11T16:27:42;5.28;;;2.00;;
73296;SDS011;61524;50.938;11.396;2022-08-11T16:30:12;6.28;;;2.10;;
73296;SDS011;61524;50.938;11.396;2022-08-11T16:32:39;5.53;;;2.22;;
73296;SDS011;61524;50.938;11.396;2022-08-11T16:35:12;5.50;;;2.20;;
73296;SDS011;61524;50.938;11.396;2022-08-11T16:38:01;4.03;;;2.00;;
73296;SDS011;61524;50.938;11.396;2022-08-11T16:40:48;4.07;;;1.80;;
73296;SDS011;61524;50.938;11.396;2022-08-11T16:43:16;3.83;;;1.80;;
73296;SDS011;61524;50.938;11.396;2022-08-11T16:46:02;6.57;;;2.28;;
73296;SDS011;61524;50.938;11.396;2022-08-11T16:48:48;7.72;;;2.42;;
73296;SDS011;61524;50.938;11.396;2022-08-11T16:51:14;5.70;;;2.08;;
73296;SDS011;61524;50.938;11.396;2022-08-11T16:53:41;7.43;;;2.45;;
73296;SDS011;61524;50.938;11.396;2022-08-11T16:56:09;7.40;;;2.42;;
73296;SDS011;61524;50.938;11.396;2022-08-11T16:58:41;4.22;;;1.98;;
73296;SDS011;61524;50.938;11.396;2022-08-11T17:01:26;4.53;;;1.90;;
73296;SDS011;61524;50.938;11.396;2022-08-11T17:04:06;3.83;;;1.85;;
73296;SDS011;61524;50.938;11.396;2022-08-11T17:06:55;6.28;;;2.33;;
73296;SDS011;61524;50.938;11.396;2022-08-11T17:10:00;5.43;;;2.10;;
73296;SDS011;61524;50.938;11.396;2022-08-11T17:12:47;7.60;;;2.20;;
73296;SDS011;61524;50.938;11.396;2022-08-11T17:15:34;5.07;;;2.25;;
73296;SDS011;61524;50.938;11.396;2022-08-11T17:18:28;4.10;;;2.40;;
73296;SDS011;61524;50.938;11.396;2022-08-11T17:21:05;4.68;;;2.35;;
73296;SDS011;61524;50.938;11.396;2022-08-11T17:23:36;5.80;;;2.25;;
73296;SDS011;61524;50.938;11.396;2022-08-11T17:26:11;5.05;;;2.40;;
73296;SDS011;61524;50.938;11.396;2022-08-11T17:28:40;5.07;;;2.17;;
73296;SDS011;61524;50.938;11.396;2022-08-11T17:31:07;4.45;;;2.40;;
73296;SDS011;61524;50.938;11.396;2022-08-11T17:33:53;5.30;;;2.20;;
73296;SDS011;61524;50.938;11.396;2022-08-11T17:36:39;4.18;;;2.25;;
73296;SDS011;61524;50.938;11.396;2022-08-11T17:39:09;5.60;;;2.50;;
73296;SDS011;61524;50.938;11.396;2022-08-11T17:41:37;5.90;;;2.10;;
73296;SDS011;61524;50.938;11.396;2022-08-11T17:44:22;7.22;;;2.33;;
73296;SDS011;61524;50.938;11.396;2022-08-11T17:47:08;3.78;;;2.15;;
73296;SDS011;61524;50.938;11.396;2022-08-11T17:49:53;6.07;;;2.45;;
73296;SDS011;61524;50.938;11.396;2022-08-11T17:52:19;7.13;;;2.20;;
73296;SDS011;61524;50.938;11.396;2022-08-11T17:55:04;4.25;;;2.00;;
73296;SDS011;61524;50.938;11.396;2022-08-11T17:57:50;6.47;;;2.30;;
73296;SDS011;61524;50.938;11.396;2022-08-11T18:00:34;5.32;;;2.42;;
73296;SDS011;61524;50.938;11.396;2022-08-11T18:03:01;8.07;;;2.28;;
73296;SDS011;61524;50.938;11.396;2022-08-11T18:05:47;9.02;;;2.10;;
73296;SDS011;61524;50.938;11.396;2022-08-11T18:10:59;5.35;;;2.00;;
73296;SDS011;61524;50.938;11.396;2022-08-11T18:13:45;5.57;;;2.28;;
73296;SDS011;61524;50.938;11.396;2022-08-11T18:16:31;19.05;;;2.90;;
73296;SDS011;61524;50.938;11.396;2022-08-11T18:19:15;4.07;;;2.17;;
73296;SDS011;61524;50.938;11.396;2022-08-11T18:22:10;5.60;;;2.30;;
73296;SDS011;61524;50.938;11.396;2022-08-11T18:25:20;10.73;;;2.42;;
73296;SDS011;61524;50.938;11.396;2022-08-11T18:28:08;7.57;;;2.15;;
73296;SDS011;61524;50.938;11.396;2022-08-11T18:30:56;4.53;;;2.15;;
73296;SDS011;61524;50.938;11.396;2022-08-11T18:33:50;5.85;;;2.60;;
73296;SDS011;61524;50.938;11.396;2022-08-11T18:36:40;7.25;;;2.25;;
73296;SDS011;61524;50.938;11.396;2022-08-11T18:39:33;4.85;;;2.50;;
73296;SDS011;61524;50.938;11.396;2022-08-11T18:42:20;4.20;;;2.20;;
73296;SDS011;61524;50.938;11.396;2022-08-11T18:45:10;6.03;;;2.03;;
73296;SDS011;61524;50.938;11.396;2022-08-11T18:50:43;5.55;;;2.67;;
73296;SDS011;61524;50.938;11.396;2022-08-11T18:53:28;4.90;;;3.20;;
73296;SDS011;61524;50.938;11.396;2022-08-11T18:56:14;8.25;;;3.20;;
73296;SDS011;61524;50.938;11.396;2022-08-11T18:59:00;4.90;;;2.65;;
73296;SDS011;61524;50.938;11.396;2022-08-11T19:01:46;6.60;;;3.65;;
73296;SDS011;61524;50.938;11.396;2022-08-11T19:04:31;4.50;;;2.53;;